createdAt,value
2018-04-02T00:02:03.224Z,93.50
2018-04-02T00:04:32.097Z,93.40
2018-04-02T00:07:00.990Z,93.30
2018-04-02T00:09:29.897Z,93.00
2018-04-02T00:11:58.020Z,93.00
2018-04-02T00:14:26.147Z,93.10
2018-04-02T00:16:54.406Z,93.00
2018-04-02T00:19:23.319Z,93.00
2018-04-02T00:21:51.434Z,93.00
2018-04-02T00:24:19.605Z,93.00
2018-04-02T00:26:47.724Z,93.00
2018-04-02T00:29:15.885Z,93.00
2018-04-02T00:31:44.777Z,93.40
2018-04-02T00:34:12.914Z,93.40
2018-04-02T00:36:41.096Z,93.60
2018-04-02T00:41:43.775Z,93.80
2018-04-02T00:44:11.900Z,93.80
2018-04-02T00:46:40.781Z,93.90
2018-04-02T00:49:09.644Z,94.00
2018-04-02T00:51:37.784Z,93.80
2018-04-02T00:54:05.907Z,93.60
2018-04-02T00:56:34.027Z,93.50
2018-04-02T00:59:02.357Z,93.30
2018-04-02T01:01:31.250Z,92.60
2018-04-02T01:04:00.120Z,92.20
2018-04-02T01:06:28.268Z,92.20
2018-04-02T01:08:56.400Z,92.00
2018-04-02T01:11:25.450Z,91.70
2018-04-02T01:13:53.765Z,91.70
2018-04-02T01:16:21.915Z,91.60
2018-04-02T01:18:50.089Z,91.60
2018-04-02T01:21:18.417Z,91.70
2018-04-02T01:23:47.418Z,91.50
2018-04-02T01:26:15.634Z,91.70
2018-04-02T01:28:43.778Z,91.20
2018-04-02T01:31:11.903Z,91.10
2018-04-02T01:33:40.787Z,91.20
2018-04-02T01:36:09.689Z,91.50
2018-04-02T01:38:38.583Z,91.20
2018-04-02T01:41:07.466Z,91.10
2018-04-02T01:43:36.365Z,91.10
2018-04-02T01:46:05.091Z,91.10
2018-04-02T01:48:33.207Z,91.10
2018-04-02T01:51:02.102Z,91.20
2018-04-02T01:53:31.073Z,91.20
2018-04-02T01:55:59.190Z,91.20
2018-04-02T01:58:27.350Z,91.20
2018-04-02T02:00:55.632Z,91.10
2018-04-02T02:03:24.547Z,90.90
2018-04-02T02:05:52.741Z,90.90
2018-04-02T02:08:20.854Z,90.90
2018-04-02T02:10:49.831Z,91.20
2018-04-02T02:13:17.970Z,90.90
2018-04-02T02:15:46.172Z,90.90
2018-04-02T02:18:14.292Z,91.00
2018-04-02T02:20:42.441Z,91.10
2018-04-02T02:23:10.558Z,91.10
2018-04-02T02:25:39.194Z,90.90
2018-04-02T02:28:07.474Z,91.40
2018-04-02T02:30:36.408Z,91.60
2018-04-02T02:33:04.532Z,91.50
2018-04-02T02:35:32.698Z,91.50
2018-04-02T02:38:00.813Z,91.60
2018-04-02T02:40:28.924Z,91.70
2018-04-02T02:42:57.154Z,91.80
2018-04-02T02:45:25.274Z,91.90
2018-04-02T02:47:53.403Z,92.00
2018-04-02T02:50:22.282Z,91.90
2018-04-02T02:52:50.420Z,91.90
2018-04-02T02:55:18.535Z,91.90
2018-04-02T02:57:46.675Z,91.90
2018-04-02T03:00:14.948Z,91.80
2018-04-02T03:02:43.177Z,91.90
2018-04-02T03:05:11.357Z,91.60
2018-04-02T03:07:39.946Z,91.60
2018-04-02T03:10:08.158Z,91.50
2018-04-02T03:12:36.515Z,91.50
2018-04-02T03:15:04.668Z,91.40
2018-04-02T03:17:32.828Z,91.40
2018-04-02T03:20:00.935Z,91.40
2018-04-02T03:22:29.070Z,91.30
2018-04-02T03:24:57.185Z,91.20
2018-04-02T03:27:25.330Z,91.00
2018-04-02T03:29:53.460Z,90.90
2018-04-02T03:32:22.342Z,90.20
2018-04-02T03:34:51.257Z,90.40
2018-04-02T03:37:19.386Z,90.00
2018-04-02T03:39:47.543Z,90.10
2018-04-02T03:42:16.612Z,89.60
2018-04-02T03:44:44.731Z,89.70
2018-04-02T03:47:12.848Z,89.40
2018-04-02T03:49:41.174Z,89.50
2018-04-02T03:52:09.340Z,89.60
2018-04-02T03:54:37.459Z,89.50
2018-04-02T03:57:06.429Z,90.00
2018-04-02T03:59:34.557Z,90.00
2018-04-02T04:02:02.720Z,90.00
2018-04-02T04:04:30.868Z,90.10
2018-04-02T04:07:00.188Z,89.60
2018-04-02T04:09:28.323Z,89.60
2018-04-02T04:11:56.462Z,89.00
2018-04-02T04:14:24.585Z,88.80
2018-04-02T04:16:53.900Z,88.40
2018-04-02T04:19:22.773Z,88.40
2018-04-02T04:21:50.881Z,88.40
2018-04-02T04:24:19.000Z,87.90
2018-04-02T04:26:47.145Z,88.00
2018-04-02T04:29:15.252Z,88.30
2018-04-02T04:31:44.142Z,88.30
2018-04-02T04:34:12.277Z,88.30
2018-04-02T04:36:40.473Z,88.60
2018-04-02T04:39:08.600Z,88.10
2018-04-02T04:41:36.704Z,87.90
2018-04-02T04:44:05.449Z,88.10
2018-04-02T04:46:34.335Z,88.40
2018-04-02T04:49:03.297Z,87.70
2018-04-02T04:51:31.426Z,87.70
2018-04-02T04:53:59.541Z,87.90
2018-04-02T04:56:27.907Z,88.10
2018-04-02T04:58:56.024Z,87.90
2018-04-02T05:01:24.142Z,87.70
2018-04-02T05:03:52.423Z,88.10
2018-04-02T05:06:20.816Z,87.90
2018-04-02T05:08:48.969Z,88.10
2018-04-02T05:11:17.390Z,88.30
2018-04-02T05:13:45.485Z,87.90
2018-04-02T05:16:13.636Z,87.90
2018-04-02T05:18:42.680Z,87.80
2018-04-02T05:21:10.784Z,88.10
2018-04-02T05:23:38.966Z,88.10
2018-04-02T05:26:07.094Z,87.90
2018-04-02T05:28:35.212Z,88.20
2018-04-02T05:31:03.343Z,88.10
2018-04-02T05:33:31.677Z,88.00
2018-04-02T05:35:59.791Z,88.70
2018-04-02T05:38:28.079Z,88.40
2018-04-02T05:40:56.217Z,87.40
2018-04-02T05:43:24.381Z,87.10
2018-04-02T05:45:53.638Z,87.10
2018-04-02T05:48:21.799Z,87.00
2018-04-02T05:50:49.993Z,86.80
2018-04-02T05:53:18.113Z,86.50
2018-04-02T05:55:47.019Z,85.80
2018-04-02T05:58:15.141Z,85.80
2018-04-02T06:00:43.252Z,85.70
2018-04-02T06:03:11.374Z,85.70
2018-04-02T06:05:39.584Z,86.00
2018-04-02T06:08:08.546Z,86.40
2018-04-02T06:10:36.737Z,86.00
2018-04-02T06:13:05.604Z,86.30
2018-04-02T06:15:33.714Z,86.00
2018-04-02T06:18:02.605Z,85.60
2018-04-02T06:20:31.674Z,85.30
2018-04-02T06:22:59.805Z,85.30
2018-04-02T06:25:27.949Z,84.70
2018-04-02T06:27:56.821Z,84.50
2018-04-02T06:30:25.094Z,84.60
2018-04-02T06:32:53.270Z,84.50
2018-04-02T06:35:22.279Z,83.40
2018-04-02T06:37:51.151Z,82.70
2018-04-02T06:40:19.318Z,82.70
2018-04-02T06:42:47.434Z,81.80
2018-04-02T06:45:16.494Z,81.20
2018-04-02T06:47:44.968Z,80.80
2018-04-02T06:50:13.168Z,81.30
2018-04-02T06:52:42.041Z,80.20
2018-04-02T06:55:10.967Z,79.70
2018-04-02T06:57:39.087Z,79.70
2018-04-02T07:00:07.232Z,79.80
2018-04-02T07:02:35.427Z,79.60
2018-04-02T07:05:03.683Z,80.30
2018-04-02T07:07:31.796Z,80.70
2018-04-02T07:10:00.005Z,78.60
2018-04-02T07:12:28.252Z,78.50
2018-04-02T07:15:01.069Z,78.60
2018-04-02T07:17:29.206Z,78.20
2018-04-02T07:19:58.134Z,78.60
2018-04-02T07:22:26.375Z,78.50
2018-04-02T07:24:54.513Z,77.80
2018-04-02T07:27:22.638Z,77.70
2018-04-02T07:29:50.786Z,77.10
2018-04-02T07:32:19.847Z,76.50
2018-04-02T07:34:47.974Z,76.70
2018-04-02T07:37:17.040Z,76.00
2018-04-02T07:39:45.366Z,75.90
2018-04-02T07:42:13.591Z,75.70
2018-04-02T08:02:09.125Z,74.40
2018-04-02T08:04:39.690Z,74.30
2018-04-02T08:07:09.496Z,75.50
2018-04-02T08:09:38.380Z,73.00
2018-04-02T08:12:07.284Z,73.10
2018-04-02T08:14:35.412Z,74.10
2018-04-02T08:17:03.538Z,72.70
2018-04-02T08:19:31.881Z,72.30
2018-04-02T08:22:00.801Z,71.40
2018-04-02T08:24:28.940Z,71.40
2018-04-02T08:26:57.091Z,71.30
2018-04-02T08:29:25.252Z,68.90
2018-04-02T08:31:53.541Z,68.50
2018-04-02T08:34:21.885Z,68.00
2018-04-02T08:36:50.159Z,67.00
2018-04-02T08:39:18.414Z,66.20
2018-04-02T08:41:46.589Z,65.00
2018-04-02T08:44:14.754Z,64.30
2018-04-02T08:46:43.813Z,63.30
2018-04-02T08:49:11.937Z,63.30
2018-04-02T08:51:40.052Z,62.90
2018-04-02T08:54:08.262Z,62.10
2018-04-02T08:56:37.149Z,61.30
2018-04-02T08:59:06.233Z,60.70
2018-04-02T09:01:34.396Z,60.70
2018-04-02T09:04:02.782Z,59.10
2018-04-02T09:06:30.918Z,58.50
2018-04-02T09:08:59.144Z,58.90
2018-04-02T09:11:27.279Z,58.20
2018-04-02T09:13:55.414Z,58.20
2018-04-02T09:16:23.602Z,58.50
2018-04-02T09:18:51.832Z,57.80
2018-04-02T09:21:20.728Z,57.10
2018-04-02T09:23:50.366Z,56.40
2018-04-02T09:26:18.677Z,56.30
2018-04-02T09:28:46.804Z,56.30
2018-04-02T09:31:14.951Z,55.80
2018-04-02T09:33:43.221Z,56.40
2018-04-02T09:36:11.380Z,56.10
2018-04-02T09:38:40.298Z,56.00
2018-04-02T09:41:09.377Z,56.60
2018-04-02T09:43:37.561Z,56.10
2018-04-02T09:46:05.674Z,55.80
2018-04-02T09:48:33.791Z,56.20
2018-04-02T09:51:01.956Z,56.10
2018-04-02T09:53:30.070Z,55.80
2018-04-02T09:55:58.956Z,55.10
2018-04-02T09:58:27.858Z,54.90
2018-04-02T10:01:00.807Z,55.10
2018-04-02T10:03:34.556Z,55.10
2018-04-02T10:06:02.657Z,54.60
2018-04-02T10:08:30.818Z,53.60
2018-04-02T10:10:59.047Z,54.50
2018-04-02T10:13:27.174Z,54.50
2018-04-02T10:15:55.322Z,54.20
2018-04-02T10:18:23.455Z,54.60
2018-04-02T10:20:52.297Z,54.40
2018-04-02T10:23:20.430Z,54.30
2018-04-02T10:25:48.549Z,53.50
2018-04-02T10:28:16.808Z,52.60
2018-04-02T10:30:45.145Z,52.50
2018-04-02T10:33:13.258Z,52.50
2018-04-02T10:35:41.620Z,52.70
2018-04-02T10:38:11.147Z,52.20
2018-04-02T10:40:39.342Z,52.20
2018-04-02T10:43:07.458Z,52.50
2018-04-02T10:45:37.129Z,51.60
2018-04-02T10:48:05.290Z,51.60
2018-04-02T10:50:33.394Z,51.50
2018-04-02T10:53:02.595Z,51.80
2018-04-02T10:55:31.535Z,52.90
2018-04-02T10:57:59.742Z,52.90
2018-04-02T11:00:27.870Z,52.30
2018-04-02T11:02:56.775Z,52.00
2018-04-02T11:05:24.909Z,51.90
2018-04-02T11:07:53.040Z,50.50
2018-04-02T11:10:21.163Z,50.70
2018-04-02T11:12:49.404Z,50.50
2018-04-02T11:15:18.434Z,50.40
2018-04-02T11:17:46.751Z,49.90
2018-04-02T11:20:14.906Z,50.50
2018-04-02T11:22:43.090Z,50.00
2018-04-02T11:25:11.547Z,49.30
2018-04-02T11:27:39.665Z,50.30
2018-04-02T11:30:07.806Z,50.00
2018-04-02T11:32:36.103Z,50.00
2018-04-02T11:35:04.400Z,50.00
2018-04-02T11:37:32.521Z,48.60
2018-04-02T11:40:01.421Z,48.70
2018-04-02T11:42:29.568Z,48.60
2018-04-02T11:44:57.673Z,48.90
2018-04-02T11:47:25.926Z,48.50
2018-04-02T11:49:54.829Z,46.10
2018-04-02T11:52:22.975Z,46.10
2018-04-02T11:54:51.088Z,47.00
2018-04-02T11:57:19.204Z,47.10
2018-04-02T11:59:47.337Z,46.90
2018-04-02T12:02:15.566Z,47.70
2018-04-02T12:04:43.865Z,51.10
2018-04-02T12:07:11.974Z,51.60
2018-04-02T12:09:40.097Z,53.70
2018-04-02T12:12:08.309Z,53.90
2018-04-02T12:14:36.432Z,54.30
2018-04-02T12:17:04.730Z,53.20
2018-04-02T12:19:33.623Z,52.00
2018-04-02T12:22:01.750Z,51.90
2018-04-02T12:24:29.884Z,50.40
2018-04-02T12:26:58.056Z,47.90
2018-04-02T12:29:26.755Z,48.20
2018-04-02T12:31:55.740Z,49.00
2018-04-02T12:34:24.008Z,48.90
2018-04-02T12:36:52.902Z,49.30
2018-04-02T12:39:21.736Z,49.30
2018-04-02T12:41:49.952Z,48.80
2018-04-02T12:44:18.396Z,48.50
2018-04-02T12:46:46.732Z,47.80
2018-04-02T12:49:14.853Z,47.40
2018-04-02T12:51:44.578Z,47.00
2018-04-02T12:54:12.699Z,47.10
2018-04-02T12:56:40.839Z,46.80
2018-04-02T12:59:09.020Z,45.10
2018-04-02T13:01:38.042Z,45.30
2018-04-02T13:04:06.979Z,45.30
2018-04-02T13:06:35.114Z,45.40
2018-04-02T13:09:04.229Z,45.70
2018-04-02T13:11:32.365Z,45.90
2018-04-02T13:14:00.481Z,46.20
2018-04-02T13:16:28.625Z,47.20
2018-04-02T13:18:56.749Z,46.60
2018-04-02T13:21:25.806Z,46.50
2018-04-02T13:23:53.954Z,46.50
2018-04-02T13:26:22.077Z,46.70
2018-04-02T13:28:50.208Z,47.10
2018-04-02T13:31:18.430Z,46.50
2018-04-02T13:33:46.554Z,47.10
2018-04-02T13:36:14.676Z,47.80
2018-04-02T13:38:42.800Z,46.10
2018-04-02T13:41:10.963Z,47.00
2018-04-02T13:43:39.416Z,48.00
2018-04-02T13:46:08.499Z,48.70
2018-04-02T13:48:36.620Z,48.60
2018-04-02T13:51:04.957Z,49.70
2018-04-02T13:53:33.100Z,49.80
2018-04-02T13:56:01.401Z,49.90
2018-04-02T13:58:30.289Z,50.00
2018-04-02T14:00:58.563Z,50.00
2018-04-02T14:03:26.707Z,49.40
2018-04-02T14:05:54.945Z,49.90
2018-04-02T14:08:23.821Z,49.10
2018-04-02T14:10:52.789Z,49.10
2018-04-02T14:13:20.869Z,49.10
2018-04-02T14:15:49.012Z,49.40
2018-04-02T14:18:17.207Z,49.60
2018-04-02T14:20:45.333Z,49.20
2018-04-02T14:23:13.492Z,49.50
2018-04-02T14:25:41.660Z,49.40
2018-04-02T14:28:10.662Z,48.50
2018-04-02T14:30:38.771Z,48.40
2018-04-02T14:33:07.114Z,47.30
2018-04-02T14:35:35.329Z,47.70
2018-04-02T14:38:03.872Z,46.80
2018-04-02T14:40:31.978Z,47.00
2018-04-02T14:43:04.354Z,46.60
2018-04-02T14:45:32.507Z,46.60
2018-04-02T14:48:01.446Z,47.20
2018-04-02T14:50:29.755Z,47.10
2018-04-02T14:52:58.776Z,47.80
2018-04-02T14:55:27.002Z,47.30
2018-04-02T14:57:55.341Z,47.50
2018-04-02T15:00:23.471Z,47.60
2018-04-02T15:02:51.591Z,48.10
2018-04-02T15:05:19.726Z,47.80
2018-04-02T15:07:47.835Z,47.40
2018-04-02T15:10:15.962Z,47.20
2018-04-02T15:12:44.172Z,47.20
2018-04-02T15:15:12.461Z,47.30
2018-04-02T15:17:40.576Z,47.60
2018-04-02T15:20:08.791Z,48.00
2018-04-02T15:22:36.910Z,48.60
2018-04-02T15:25:05.059Z,49.20
2018-04-02T15:27:33.474Z,49.60
2018-04-02T15:30:02.514Z,50.40
2018-04-02T15:32:31.279Z,50.40
2018-04-02T15:34:59.385Z,50.80
2018-04-02T15:37:27.510Z,50.40
2018-04-02T15:39:55.626Z,50.60
2018-04-02T15:42:23.754Z,49.80
2018-04-02T15:44:52.142Z,48.70
2018-04-02T15:47:20.422Z,48.30
2018-04-02T15:49:48.546Z,48.60
2018-04-02T15:52:16.665Z,48.80
2018-04-02T15:54:44.791Z,49.90
2018-04-02T15:57:13.012Z,50.00
2018-04-02T15:59:41.229Z,49.80
2018-04-02T16:02:09.383Z,49.90
2018-04-02T16:04:37.501Z,50.10
2018-04-02T16:07:05.764Z,50.40
2018-04-02T16:09:33.900Z,50.10
2018-04-02T16:12:02.026Z,51.20
2018-04-02T16:14:30.135Z,52.50
2018-04-02T16:16:58.282Z,54.30
2018-04-02T16:19:27.283Z,55.70
2018-04-02T16:21:55.410Z,55.70
2018-04-02T16:24:23.613Z,56.80
2018-04-02T16:26:52.500Z,58.40
2018-04-02T16:29:20.619Z,58.40
2018-04-02T16:31:48.862Z,59.00
2018-04-02T16:34:17.762Z,62.50
2018-04-02T16:36:45.876Z,62.50
2018-04-02T16:39:13.976Z,64.20
2018-04-02T16:41:42.112Z,64.70
2018-04-02T16:44:10.228Z,66.90
2018-04-02T16:46:39.317Z,68.40
2018-04-02T16:49:07.636Z,68.40
2018-04-02T16:51:35.733Z,68.30
2018-04-02T16:54:03.848Z,68.80
2018-04-02T16:56:31.979Z,68.70
2018-04-02T16:59:00.140Z,69.00
2018-04-02T17:01:28.734Z,66.10
2018-04-02T17:03:56.938Z,65.70
2018-04-02T17:06:25.117Z,66.40
2018-04-02T17:08:53.258Z,64.50
2018-04-02T17:11:21.366Z,64.40
2018-04-02T17:13:50.257Z,66.30
2018-04-02T17:16:18.372Z,65.40
2018-04-02T17:18:46.513Z,64.80
2018-04-02T17:21:15.398Z,66.40
2018-04-02T17:23:44.284Z,66.10
2018-04-02T17:26:12.480Z,66.10
2018-04-02T17:28:41.341Z,67.20
2018-04-02T17:31:09.614Z,67.10
2018-04-02T17:33:37.774Z,66.30
2018-04-02T17:36:05.894Z,66.50
2018-04-02T17:38:34.799Z,66.90
2018-04-02T17:41:02.934Z,66.80
2018-04-02T17:43:31.064Z,67.60
2018-04-02T17:45:59.195Z,68.50
2018-04-02T17:48:27.313Z,69.20
2018-04-02T17:50:55.445Z,69.60
2018-04-02T17:53:24.329Z,70.30
2018-04-02T17:55:52.480Z,70.20
2018-04-02T17:58:20.583Z,69.80
2018-04-02T18:00:48.688Z,70.30
2018-04-02T18:03:16.822Z,70.70
2018-04-02T18:05:44.943Z,70.80
2018-04-02T18:08:13.056Z,70.90
2018-04-02T18:10:41.949Z,71.50
2018-04-02T18:13:10.059Z,71.40
2018-04-02T18:15:38.166Z,71.80
2018-04-02T18:18:06.278Z,70.90
2018-04-02T18:20:35.270Z,70.90
2018-04-02T18:23:04.158Z,70.40
2018-04-02T18:25:32.745Z,70.40
2018-04-02T18:28:01.679Z,70.10
2018-04-02T18:30:29.769Z,69.90
2018-04-02T18:32:57.929Z,70.20
2018-04-02T18:35:26.090Z,70.50
2018-04-02T18:37:54.230Z,69.50
2018-04-02T18:40:23.129Z,69.50
2018-04-02T18:42:51.368Z,69.50
2018-04-02T18:45:19.527Z,68.90
2018-04-02T18:47:47.642Z,69.10
2018-04-02T18:50:16.641Z,68.70
2018-04-02T18:52:44.778Z,68.70
2018-04-02T18:55:12.921Z,67.80
2018-04-02T18:57:41.151Z,67.70
2018-04-02T19:00:10.954Z,67.60
2018-04-02T19:02:40.040Z,66.90
2018-04-02T19:05:08.143Z,66.80
2018-04-02T19:07:37.199Z,66.60
2018-04-02T19:10:05.366Z,66.60
2018-04-02T19:12:33.572Z,66.00
2018-04-02T19:15:02.471Z,67.20
2018-04-02T19:17:31.364Z,65.70
2018-04-02T19:19:59.487Z,65.70
2018-04-02T19:22:27.698Z,66.10
2018-04-02T19:24:56.610Z,66.30
2018-04-02T19:27:24.719Z,66.20
2018-04-02T19:29:52.842Z,66.90
2018-04-02T19:32:21.750Z,67.30
2018-04-02T19:34:49.866Z,67.30
2018-04-02T19:37:17.980Z,66.90
2018-04-02T19:39:46.159Z,67.40
2018-04-02T19:42:14.266Z,67.70
2018-04-02T19:44:42.377Z,67.60
2018-04-02T19:47:11.338Z,68.40
2018-04-02T19:49:39.561Z,67.90
2018-04-02T19:52:08.489Z,68.60
2018-04-02T19:54:36.835Z,68.60
2018-04-02T19:57:05.731Z,69.30
2018-04-02T19:59:34.016Z,69.30
2018-04-02T20:02:02.245Z,70.10
2018-04-02T20:04:30.380Z,69.70
2018-04-02T20:06:58.610Z,70.60
2018-04-02T20:09:27.505Z,70.20
2018-04-02T20:11:56.441Z,70.00
2018-04-02T20:14:24.733Z,70.00
2018-04-02T20:16:53.042Z,70.30
2018-04-02T20:19:22.745Z,70.60
2018-04-02T20:21:50.899Z,70.60
2018-04-02T20:24:19.032Z,70.50
2018-04-02T20:26:47.158Z,71.20
2018-04-02T20:29:15.294Z,71.50
2018-04-02T20:31:43.418Z,71.50
2018-04-02T20:34:11.653Z,71.50
2018-04-02T20:36:40.030Z,71.70
2018-04-02T20:39:08.285Z,71.90
2018-04-02T20:41:36.571Z,71.90
2018-04-02T20:44:04.814Z,72.40
2018-04-02T20:46:33.836Z,73.10
2018-04-02T20:49:02.317Z,73.00
2018-04-02T20:51:30.422Z,73.40
2018-04-02T20:53:58.580Z,73.90
2018-04-02T20:56:26.721Z,74.20
2018-04-02T20:58:54.833Z,74.50
2018-04-02T21:01:23.055Z,74.90
2018-04-02T21:03:51.943Z,75.30
2018-04-02T21:06:20.969Z,75.80
2018-04-02T21:08:49.114Z,75.70
2018-04-02T21:11:17.341Z,76.30
2018-04-02T21:13:45.686Z,76.80
2018-04-02T21:16:13.815Z,77.00
2018-04-02T21:18:42.206Z,77.50
2018-04-02T21:21:11.140Z,78.10
2018-04-02T21:23:39.278Z,78.50
2018-04-02T21:26:07.398Z,79.00
2018-04-02T21:28:35.554Z,79.70
2018-04-02T21:31:03.636Z,80.00
2018-04-02T21:33:31.765Z,80.90
2018-04-02T21:36:00.661Z,82.10
2018-04-02T21:38:30.274Z,82.90
2018-04-02T21:40:59.138Z,83.40
2018-04-02T21:43:28.755Z,84.00
2018-04-02T21:45:57.810Z,84.60
2018-04-02T21:48:25.923Z,84.50
2018-04-02T21:50:54.157Z,85.50
2018-04-02T21:53:22.292Z,85.30
2018-04-02T21:55:51.175Z,85.90
2018-04-02T21:58:20.049Z,86.60
2018-04-02T22:00:49.058Z,86.60
2018-04-02T22:03:17.166Z,86.60
2018-04-02T22:05:45.276Z,87.00
2018-04-02T22:08:13.413Z,87.20
2018-04-02T22:10:41.546Z,87.60
2018-04-02T22:13:10.447Z,88.10
2018-04-02T22:15:39.330Z,88.50
2018-04-02T22:18:08.198Z,89.10
2018-04-02T22:20:37.088Z,89.80
2018-04-02T22:23:05.215Z,89.70
2018-04-02T22:25:33.506Z,90.10
2018-04-02T22:28:01.792Z,90.40
2018-04-02T22:30:30.116Z,90.60
2018-04-02T22:32:58.985Z,91.10
2018-04-02T22:35:27.112Z,91.00
2018-04-02T22:37:55.235Z,91.30
2018-04-02T22:40:24.125Z,91.90
2018-04-02T22:42:52.855Z,91.80
2018-04-02T22:45:20.985Z,92.20
2018-04-02T22:47:49.866Z,92.60
2018-04-02T22:50:18.788Z,93.00
2018-04-02T22:52:46.921Z,92.80
2018-04-02T22:55:16.957Z,92.90
2018-04-02T22:57:45.701Z,92.80
2018-04-02T23:00:13.839Z,93.00
2018-04-02T23:02:41.978Z,93.10
2018-04-02T23:05:11.618Z,93.10
2018-04-02T23:07:40.706Z,93.00
2018-04-02T23:10:08.957Z,93.00
2018-04-02T23:12:37.073Z,93.00
2018-04-02T23:15:05.279Z,93.10
2018-04-02T23:17:33.569Z,93.20
2018-04-02T23:20:01.845Z,93.20
2018-04-02T23:22:41.794Z,93.20
2018-04-02T23:25:10.029Z,93.40
2018-04-02T23:27:38.192Z,93.30
2018-04-02T23:30:07.186Z,93.60
2018-04-02T23:32:35.378Z,93.60
2018-04-02T23:35:03.488Z,93.60
2018-04-02T23:37:31.616Z,94.00
2018-04-02T23:39:59.733Z,93.70
2018-04-02T23:42:27.939Z,93.70
2018-04-02T23:44:56.837Z,93.60
2018-04-02T23:47:26.001Z,93.70
2018-04-02T23:49:54.125Z,93.60
2018-04-02T23:52:22.257Z,93.60
2018-04-02T23:54:51.133Z,93.40
2018-04-02T23:57:20.768Z,93.80
2018-04-02T23:59:49.677Z,93.60
